createdAt,value
2018-06-18T03:01:05.548Z,3.90
2018-06-18T03:02:04.632Z,4.00
2018-06-18T03:03:04.046Z,4.10
2018-06-18T03:04:04.181Z,4.10
2018-06-18T03:05:04.356Z,4.30
2018-06-18T03:06:04.452Z,4.00
2018-06-18T03:07:04.698Z,4.00
2018-06-18T03:08:04.833Z,4.70
2018-06-18T03:09:05.058Z,4.10
2018-06-18T03:10:05.144Z,4.10
2018-06-18T03:11:05.391Z,3.80
2018-06-18T03:12:05.450Z,4.10
2018-06-18T03:13:05.627Z,4.10
2018-06-18T03:14:05.844Z,3.90
2018-06-18T03:15:06.043Z,4.00
2018-06-18T03:16:06.173Z,4.00
2018-06-18T03:17:06.305Z,4.10
2018-06-18T03:18:06.560Z,3.90
2018-06-18T03:19:06.677Z,4.10
2018-06-18T03:20:06.839Z,3.90
2018-06-18T03:21:07.019Z,3.70
2018-06-18T03:22:07.179Z,4.30
2018-06-18T03:23:07.381Z,4.00
2018-06-18T03:24:07.476Z,4.10
2018-06-18T03:25:07.694Z,4.30
2018-06-18T03:26:07.844Z,4.30
2018-06-18T03:27:07.982Z,4.20
2018-06-18T03:28:08.186Z,4.30
2018-06-18T03:29:08.361Z,4.30
2018-06-18T03:30:08.495Z,3.80
2018-06-18T03:31:08.709Z,3.90
2018-06-18T03:32:08.881Z,4.10
2018-06-18T03:33:09.014Z,4.00
2018-06-18T03:34:09.186Z,4.20
2018-06-18T03:35:09.400Z,4.20
2018-06-18T03:36:09.566Z,4.00
2018-06-18T03:37:09.682Z,4.20
2018-06-18T03:38:09.865Z,3.60
2018-06-18T03:39:10.093Z,4.00
2018-06-18T03:40:10.195Z,4.40
2018-06-18T03:41:10.344Z,4.40
2018-06-18T03:42:10.505Z,3.50
2018-06-18T03:43:10.728Z,3.90
2018-06-18T03:44:10.795Z,3.70
2018-06-18T03:45:11.025Z,4.00
2018-06-18T03:46:11.140Z,3.80
2018-06-18T03:47:11.359Z,4.40
2018-06-18T03:48:11.498Z,4.30
2018-06-18T03:49:11.725Z,4.00
2018-06-18T03:50:11.816Z,3.90
2018-06-18T03:51:12.031Z,4.30
2018-06-18T03:52:12.181Z,4.00
2018-06-18T03:53:12.366Z,3.90
2018-06-18T03:54:12.458Z,3.60
2018-06-18T03:55:12.687Z,3.90
2018-06-18T03:56:12.819Z,4.10
2018-06-18T03:57:12.951Z,4.10
2018-06-18T03:58:13.212Z,3.90
2018-06-18T03:59:13.325Z,4.10
2018-06-18T04:00:13.479Z,3.90
2018-06-18T04:01:13.628Z,3.90
2018-06-18T04:02:13.893Z,4.20
2018-06-18T04:03:14.090Z,4.10
2018-06-18T04:04:14.251Z,3.90
2018-06-18T04:05:14.334Z,4.30
2018-06-18T04:06:14.577Z,4.00
2018-06-18T04:07:14.708Z,4.00
2018-06-18T04:08:14.979Z,4.10
2018-06-18T04:09:14.980Z,3.90
2018-06-18T04:10:15.158Z,4.20
2018-06-18T04:11:15.457Z,4.10
2018-06-18T04:12:15.518Z,4.20
2018-06-18T04:13:15.690Z,4.10
2018-06-18T04:14:15.890Z,4.00
2018-06-18T04:15:16.055Z,4.30
2018-06-18T04:16:16.155Z,3.80
2018-06-18T04:17:16.328Z,4.10
2018-06-18T04:18:16.612Z,4.00
2018-06-18T04:19:16.783Z,3.80
2018-06-18T04:20:16.969Z,4.10
2018-06-18T04:21:17.060Z,4.00
2018-06-18T04:22:17.229Z,4.00
2018-06-18T04:23:17.445Z,4.00
2018-06-18T04:24:17.572Z,3.90
2018-06-18T04:25:17.722Z,3.70
2018-06-18T04:26:17.873Z,4.10
2018-06-18T04:27:18.125Z,3.80
2018-06-18T04:28:18.214Z,4.10
2018-06-18T04:29:18.365Z,4.00
2018-06-18T04:30:18.585Z,4.20
2018-06-18T04:31:18.744Z,3.90
2018-06-18T04:32:18.854Z,3.60
2018-06-18T04:33:19.157Z,3.80
2018-06-18T04:34:19.334Z,4.30
2018-06-18T04:35:19.478Z,4.20
2018-06-18T04:36:19.522Z,4.20
2018-06-18T04:37:19.833Z,3.90
2018-06-18T04:38:19.902Z,3.90
2018-06-18T04:39:20.123Z,4.20
2018-06-18T04:40:20.277Z,4.00
2018-06-18T04:41:20.475Z,4.20
2018-06-18T04:42:20.613Z,4.40
2018-06-18T04:43:20.743Z,4.40
2018-06-18T04:44:20.967Z,4.10
2018-06-18T04:45:21.164Z,4.40
2018-06-18T04:46:21.234Z,3.90
2018-06-18T04:47:21.423Z,4.00
2018-06-18T04:48:21.628Z,4.00
2018-06-18T04:49:21.760Z,4.10
2018-06-18T04:50:22.013Z,4.10
2018-06-18T04:51:22.141Z,4.20
2018-06-18T04:52:22.262Z,4.40
2018-06-18T04:53:22.512Z,4.00
2018-06-18T04:54:22.607Z,4.40
2018-06-18T04:55:22.805Z,3.90
2018-06-18T04:56:23.106Z,3.80
2018-06-18T04:57:23.219Z,3.70
2018-06-18T04:58:23.367Z,3.50
2018-06-18T04:59:23.628Z,3.70
2018-06-18T05:00:23.773Z,3.80
2018-06-18T05:01:23.948Z,3.90
2018-06-18T05:02:24.086Z,3.90
2018-06-18T05:03:24.215Z,4.00
2018-06-18T05:04:24.415Z,3.40
2018-06-18T05:05:24.618Z,3.90
2018-06-18T05:06:24.722Z,4.30
2018-06-18T05:07:24.908Z,4.10
2018-06-18T05:08:25.050Z,4.20
2018-06-18T05:09:25.247Z,4.60
2018-06-18T05:10:25.535Z,4.10
2018-06-18T05:11:25.591Z,4.20
2018-06-18T05:12:25.758Z,3.90
2018-06-18T05:13:25.892Z,4.20
2018-06-18T05:14:26.040Z,4.10
2018-06-18T05:15:26.265Z,4.00
2018-06-18T05:16:26.421Z,4.10
2018-06-18T05:17:26.607Z,4.10
2018-06-18T05:18:26.812Z,3.80
2018-06-18T05:19:27.036Z,3.80
2018-06-18T05:20:27.218Z,3.80
2018-06-18T05:21:27.379Z,3.60
2018-06-18T05:22:27.503Z,3.80
2018-06-18T05:23:27.702Z,4.10
2018-06-18T05:24:27.932Z,3.60
2018-06-18T05:25:28.090Z,3.70
2018-06-18T05:26:28.286Z,3.50
2018-06-18T05:27:28.416Z,3.60
2018-06-18T05:28:28.565Z,3.50
2018-06-18T05:29:28.935Z,3.50
2018-06-18T05:30:28.896Z,3.00
2018-06-18T05:31:29.097Z,3.00
2018-06-18T05:32:29.388Z,2.80
2018-06-18T05:33:29.515Z,3.00
2018-06-18T05:34:29.661Z,2.70
2018-06-18T05:35:29.857Z,2.80
2018-06-18T05:36:30.159Z,2.70
2018-06-18T05:37:30.104Z,3.00
2018-06-18T05:38:30.379Z,3.20
2018-06-18T05:39:30.364Z,2.80
2018-06-18T05:40:30.636Z,2.70
2018-06-18T05:41:30.803Z,2.80
2018-06-18T05:42:30.860Z,2.80
2018-06-18T05:43:31.236Z,2.60
2018-06-18T05:44:31.319Z,2.70
2018-06-18T05:45:31.464Z,2.90
2018-06-18T05:46:31.692Z,2.70
2018-06-18T05:47:31.854Z,2.50
2018-06-18T05:48:31.956Z,2.60
2018-06-18T05:49:32.082Z,2.90
2018-06-18T05:50:32.408Z,2.50
2018-06-18T05:51:32.677Z,2.50
2018-06-18T05:52:32.824Z,2.90
2018-06-18T05:53:32.971Z,3.10
2018-06-18T05:54:33.151Z,3.20
2018-06-18T05:55:33.303Z,2.80
2018-06-18T05:56:33.477Z,2.70
2018-06-18T05:57:33.566Z,2.70
2018-06-18T05:58:33.897Z,2.80
2018-06-18T05:59:34.042Z,2.50
2018-06-18T06:00:35.304Z,2.60
2018-06-18T06:01:34.610Z,2.50
2018-06-18T06:02:34.533Z,2.70
2018-06-18T06:03:34.741Z,2.40
2018-06-18T06:04:34.931Z,2.30
2018-06-18T06:05:35.045Z,2.40
2018-06-18T06:06:35.284Z,2.40
2018-06-18T06:07:35.521Z,2.60
2018-06-18T06:08:37.296Z,2.80
2018-06-18T06:09:48.711Z,2.40
2018-06-18T06:10:38.826Z,2.50
2018-06-18T06:11:39.154Z,2.60
2018-06-18T06:12:36.621Z,2.60
2018-06-18T06:13:36.480Z,2.40
2018-06-18T06:14:36.633Z,2.60
2018-06-18T06:15:36.829Z,2.90
2018-06-18T06:16:37.016Z,2.40
2018-06-18T06:17:37.187Z,2.40
2018-06-18T06:18:37.296Z,2.50
2018-06-18T06:19:37.504Z,2.30
2018-06-18T06:20:37.680Z,2.40
2018-06-18T06:21:37.788Z,2.70
2018-06-18T06:22:37.948Z,2.30
2018-06-18T06:23:38.162Z,2.30
2018-06-18T06:24:38.439Z,2.40
2018-06-18T06:25:38.587Z,2.50
2018-06-18T06:26:38.720Z,2.40
2018-06-18T06:27:38.910Z,2.20
2018-06-18T06:28:39.107Z,2.10
2018-06-18T06:29:39.377Z,2.30
2018-06-18T06:30:39.465Z,2.30
2018-06-18T06:31:39.617Z,2.20
2018-06-18T06:32:39.757Z,2.40
2018-06-18T06:33:40.107Z,2.20
2018-06-18T06:34:40.140Z,2.00
2018-06-18T06:35:40.337Z,1.90
2018-06-18T06:36:40.541Z,2.20
2018-06-18T06:37:40.708Z,2.20
2018-06-18T06:38:40.875Z,2.30
2018-06-18T06:39:41.098Z,2.40
2018-06-18T06:40:41.181Z,2.10
2018-06-18T06:41:41.399Z,2.40
2018-06-18T06:42:41.601Z,2.20
2018-06-18T06:43:42.464Z,2.40
2018-06-18T06:44:41.949Z,2.30
2018-06-18T06:45:42.032Z,2.20
2018-06-18T06:46:42.211Z,2.00
2018-06-18T06:47:42.414Z,2.10
2018-06-18T06:48:42.567Z,2.40
2018-06-18T06:49:42.671Z,2.10
2018-06-18T06:50:42.943Z,2.30
2018-06-18T06:51:43.138Z,2.20
2018-06-18T06:52:43.219Z,2.20
2018-06-18T06:53:43.439Z,2.20
2018-06-18T06:54:43.642Z,2.50
2018-06-18T06:55:43.840Z,2.10
2018-06-18T06:56:44.067Z,2.20
2018-06-18T06:57:44.210Z,2.40
2018-06-18T06:58:44.996Z,2.00
2018-06-18T06:59:44.544Z,2.20
2018-06-18T07:00:44.630Z,2.20
2018-06-18T07:01:44.927Z,2.40
2018-06-18T07:02:45.162Z,2.20
2018-06-18T07:03:45.235Z,2.40
2018-06-18T07:04:45.469Z,2.10
2018-06-18T07:05:45.673Z,2.20
2018-06-18T07:06:45.859Z,2.20
2018-06-18T07:07:45.982Z,2.10
2018-06-18T07:08:46.128Z,2.20
2018-06-18T07:09:46.348Z,1.90
2018-06-18T07:10:46.536Z,2.20
2018-06-18T07:11:46.717Z,2.30
2018-06-18T07:12:46.855Z,2.10
2018-06-18T07:13:47.043Z,2.30
2018-06-18T07:14:47.167Z,2.00
2018-06-18T07:15:47.343Z,2.30
2018-06-18T07:16:47.469Z,2.20
2018-06-18T07:17:47.602Z,2.30
2018-06-18T07:18:47.876Z,2.40
2018-06-18T07:19:47.981Z,2.10
2018-06-18T07:20:48.136Z,2.20
2018-06-18T07:21:48.347Z,2.10
2018-06-18T07:22:48.611Z,2.10
2018-06-18T07:23:48.724Z,2.30
2018-06-18T07:24:48.879Z,2.50
2018-06-18T07:25:49.054Z,2.30
2018-06-18T07:26:49.209Z,2.40
2018-06-18T07:27:49.402Z,2.30
2018-06-18T07:28:49.609Z,2.40
2018-06-18T07:29:49.716Z,2.30
2018-06-18T07:30:50.045Z,2.20
2018-06-18T07:31:50.050Z,2.20
2018-06-18T07:32:50.187Z,2.10
2018-06-18T07:33:50.481Z,2.20
2018-06-18T07:34:50.607Z,2.30
2018-06-18T07:35:50.703Z,2.00
2018-06-18T07:36:51.278Z,2.00
2018-06-18T07:37:51.113Z,2.30
2018-06-18T07:38:51.231Z,2.00
2018-06-18T07:39:51.379Z,2.00
2018-06-18T07:40:51.564Z,2.20
2018-06-18T07:41:51.710Z,1.80
2018-06-18T07:42:51.871Z,2.00
2018-06-18T07:43:52.106Z,2.30
2018-06-18T07:44:52.296Z,2.40
2018-06-18T07:45:52.360Z,2.10
2018-06-18T07:46:52.623Z,2.10
2018-06-18T07:47:52.752Z,1.90
2018-06-18T07:48:52.963Z,1.90
2018-06-18T07:49:53.130Z,1.70
2018-06-18T07:50:53.258Z,2.00
2018-06-18T07:51:53.467Z,2.20
2018-06-18T07:52:53.632Z,2.30
2018-06-18T07:53:53.779Z,2.10
2018-06-18T07:54:54.118Z,2.10
2018-06-18T07:55:54.177Z,2.20
2018-06-18T07:56:54.292Z,2.10
2018-06-18T07:57:54.508Z,2.20
2018-06-18T07:58:54.695Z,2.10
2018-06-18T07:59:54.796Z,2.00
2018-06-18T08:00:55.017Z,1.90
2018-06-18T08:01:55.200Z,2.10
2018-06-18T08:02:55.308Z,2.00
2018-06-18T08:03:55.569Z,1.90
2018-06-18T08:04:55.724Z,2.00
2018-06-18T08:05:55.854Z,2.10
2018-06-18T08:06:56.021Z,2.10
2018-06-18T08:07:56.194Z,2.20
2018-06-18T08:08:56.388Z,2.00
2018-06-18T08:09:56.540Z,2.00
2018-06-18T08:10:56.827Z,1.70
2018-06-18T08:11:56.876Z,2.30
2018-06-18T08:12:57.091Z,2.20
2018-06-18T08:13:57.203Z,2.10
2018-06-18T08:14:57.403Z,2.00
2018-06-18T08:15:57.700Z,2.00
2018-06-18T08:16:57.964Z,2.00
2018-06-18T08:17:58.018Z,2.20
2018-06-18T08:18:58.213Z,2.10
2018-06-18T08:19:58.333Z,2.20
2018-06-18T08:20:58.542Z,2.30
2018-06-18T08:21:58.711Z,1.90
2018-06-18T08:22:58.905Z,2.10
2018-06-18T08:23:59.056Z,1.90
2018-06-18T08:24:59.244Z,2.20
2018-06-18T08:25:59.424Z,2.20
2018-06-18T08:26:59.607Z,1.90
2018-06-18T08:27:59.731Z,2.50
2018-06-18T08:28:59.865Z,2.30
2018-06-18T08:30:00.070Z,2.00
2018-06-18T08:31:00.286Z,1.80
2018-06-18T08:32:00.447Z,2.10
2018-06-18T08:33:00.593Z,2.30
2018-06-18T08:34:00.794Z,2.10
2018-06-18T08:35:00.998Z,2.40
2018-06-18T08:36:01.193Z,2.30
2018-06-18T08:37:01.322Z,2.30
2018-06-18T08:38:01.441Z,2.20
2018-06-18T08:39:01.642Z,2.30
2018-06-18T08:40:01.802Z,2.10
2018-06-18T08:41:01.984Z,2.30
2018-06-18T08:42:02.189Z,2.20
2018-06-18T08:43:02.305Z,2.40
2018-06-18T08:44:02.527Z,2.10
2018-06-18T08:45:02.679Z,2.20
2018-06-18T08:46:02.861Z,2.30
2018-06-18T08:47:03.017Z,2.20
2018-06-18T08:48:03.159Z,2.30
2018-06-18T08:49:03.350Z,2.10
2018-06-18T08:50:03.539Z,2.30
2018-06-18T08:51:03.629Z,2.50
2018-06-18T08:52:03.899Z,2.40
2018-06-18T08:53:04.069Z,2.30
2018-06-18T08:54:04.199Z,2.30
2018-06-18T08:55:04.423Z,2.20
2018-06-18T08:56:04.553Z,2.40
2018-06-18T08:57:04.763Z,2.50
2018-06-18T08:58:04.951Z,2.50
2018-06-18T08:59:05.099Z,2.90
2018-06-18T09:00:05.292Z,2.60
2018-06-18T09:01:05.471Z,2.70
2018-06-18T09:02:05.628Z,2.50
2018-06-18T09:03:05.892Z,2.30
2018-06-18T09:04:05.932Z,2.60
2018-06-18T09:05:06.177Z,2.70
2018-06-18T09:06:06.391Z,2.60
2018-06-18T09:07:06.473Z,2.70
2018-06-18T09:08:06.734Z,2.30
2018-06-18T09:09:06.839Z,2.30
2018-06-18T09:10:07.010Z,2.40
2018-06-18T09:11:07.177Z,2.60
2018-06-18T09:12:07.339Z,2.70
2018-06-18T09:13:07.415Z,2.40
2018-06-18T09:14:07.627Z,2.60
2018-06-18T09:15:07.837Z,2.20
2018-06-18T09:16:07.946Z,2.40
2018-06-18T09:17:08.079Z,2.40
2018-06-18T09:18:08.267Z,2.50
2018-06-18T09:19:08.467Z,2.30
2018-06-18T09:20:08.673Z,2.60
2018-06-18T09:21:08.776Z,2.60
2018-06-18T09:22:09.013Z,2.40
2018-06-18T09:23:09.234Z,2.70
2018-06-18T09:24:09.340Z,2.60
2018-06-18T09:25:09.510Z,2.60
2018-06-18T09:26:09.645Z,2.40
2018-06-18T09:27:09.817Z,2.40
2018-06-18T09:28:10.026Z,2.70
2018-06-18T09:29:10.151Z,2.70
2018-06-18T09:30:10.372Z,3.10
2018-06-18T09:31:10.598Z,2.70
2018-06-18T09:32:10.766Z,2.40
2018-06-18T09:33:10.853Z,2.50
2018-06-18T09:34:11.063Z,2.60
2018-06-18T09:35:11.239Z,2.30
2018-06-18T09:36:11.351Z,2.60
2018-06-18T09:37:11.555Z,2.60
2018-06-18T09:38:11.773Z,2.60
2018-06-18T09:39:11.869Z,2.60
2018-06-18T09:40:12.015Z,2.70
2018-06-18T09:41:12.249Z,2.30
2018-06-18T09:42:12.436Z,2.40
2018-06-18T09:43:12.617Z,2.40
2018-06-18T09:44:12.746Z,2.00
2018-06-18T09:45:12.905Z,2.10
2018-06-18T09:46:13.081Z,2.20
2018-06-18T09:47:13.298Z,2.30
2018-06-18T09:48:13.439Z,2.20
2018-06-18T09:49:13.637Z,2.90
2018-06-18T09:50:13.765Z,2.40
2018-06-18T09:51:13.921Z,2.30
2018-06-18T09:52:14.090Z,2.20
2018-06-18T09:53:14.261Z,2.10
2018-06-18T09:54:14.441Z,2.30
2018-06-18T09:55:14.662Z,2.30
2018-06-18T09:56:14.850Z,2.20
2018-06-18T09:57:15.006Z,2.00
2018-06-18T09:58:15.209Z,1.90
2018-06-18T09:59:15.351Z,2.20
2018-06-18T10:00:15.522Z,2.20
2018-06-18T10:01:15.714Z,2.00
2018-06-18T10:02:15.938Z,1.90
2018-06-18T10:03:16.030Z,2.20
2018-06-18T10:04:16.241Z,2.00
2018-06-18T10:05:16.365Z,2.30
2018-06-18T10:06:16.569Z,2.50
2018-06-18T10:07:16.724Z,2.10
2018-06-18T10:08:16.895Z,1.80
2018-06-18T10:09:17.055Z,2.10
2018-06-18T10:10:17.204Z,2.00
2018-06-18T10:11:17.394Z,2.10
2018-06-18T10:12:17.611Z,2.40
2018-06-18T10:13:17.724Z,2.20
2018-06-18T10:14:17.865Z,1.80
2018-06-18T10:15:18.068Z,2.30
2018-06-18T10:16:18.279Z,2.40
2018-06-18T10:17:18.428Z,2.30
2018-06-18T10:18:18.635Z,2.20
2018-06-18T10:19:18.726Z,2.40
2018-06-18T10:20:18.989Z,2.20
2018-06-18T10:21:19.133Z,2.90
2018-06-18T10:22:19.267Z,2.30
2018-06-18T10:23:19.451Z,2.10
2018-06-18T10:24:19.660Z,2.50
2018-06-18T10:25:19.810Z,1.90
2018-06-18T10:26:19.991Z,2.40
2018-06-18T10:27:20.111Z,2.40
2018-06-18T10:28:20.377Z,2.40
2018-06-18T10:29:20.453Z,2.20
2018-06-18T10:30:20.593Z,2.10
2018-06-18T10:31:20.832Z,2.30
2018-06-18T10:32:21.017Z,2.20
2018-06-18T10:33:21.128Z,2.40
2018-06-18T10:34:21.336Z,2.00
2018-06-18T10:35:21.472Z,2.10
2018-06-18T10:36:21.665Z,2.00
2018-06-18T10:37:21.841Z,2.00
2018-06-18T10:38:22.020Z,2.10
2018-06-18T10:39:22.191Z,2.10
2018-06-18T10:40:22.382Z,2.20
2018-06-18T10:41:22.522Z,2.10
2018-06-18T10:42:22.706Z,2.10
2018-06-18T10:43:22.882Z,2.10
2018-06-18T10:44:23.122Z,2.40
2018-06-18T10:45:23.265Z,1.90
2018-06-18T10:46:23.389Z,2.00
2018-06-18T10:47:23.544Z,1.80
2018-06-18T10:48:23.763Z,2.00
2018-06-18T10:49:23.898Z,2.10
2018-06-18T10:50:24.048Z,1.90
2018-06-18T10:51:24.235Z,2.20
2018-06-18T10:52:24.457Z,1.90
2018-06-18T10:53:24.661Z,2.30
2018-06-18T10:54:24.854Z,1.70
2018-06-18T10:55:25.000Z,2.10
2018-06-18T10:56:25.163Z,1.90
2018-06-18T10:57:25.321Z,2.00
2018-06-18T10:58:25.542Z,1.90
2018-06-18T10:59:25.645Z,2.10
2018-06-18T11:00:25.854Z,1.80
2018-06-18T11:01:26.039Z,2.10
2018-06-18T11:02:26.166Z,1.80
2018-06-18T11:03:26.376Z,2.00
2018-06-18T11:04:26.595Z,2.00
2018-06-18T11:05:26.833Z,2.00
2018-06-18T11:06:26.969Z,2.10
2018-06-18T11:07:27.110Z,2.00
2018-06-18T11:08:27.237Z,1.90
2018-06-18T11:09:27.393Z,1.90
2018-06-18T11:10:27.631Z,1.80
2018-06-18T11:11:27.741Z,1.70
2018-06-18T11:12:28.019Z,1.80
2018-06-18T11:13:28.073Z,2.10
2018-06-18T11:14:28.297Z,1.80
2018-06-18T11:15:28.461Z,1.90
2018-06-18T11:16:28.739Z,1.80
2018-06-18T11:17:29.012Z,1.80
2018-06-18T11:18:29.055Z,1.90
2018-06-18T11:19:29.184Z,1.90
2018-06-18T11:20:29.330Z,1.60
2018-06-18T11:21:29.518Z,1.80
2018-06-18T11:22:29.771Z,1.60
2018-06-18T11:23:29.934Z,1.70
2018-06-18T11:24:30.109Z,1.60
2018-06-18T11:25:30.274Z,1.80
2018-06-18T11:26:30.460Z,1.80
2018-06-18T11:27:30.637Z,1.80
2018-06-18T11:28:30.786Z,1.60
2018-06-18T11:29:30.948Z,1.40
2018-06-18T11:30:31.177Z,1.50
2018-06-18T11:31:31.346Z,1.50
2018-06-18T11:32:31.483Z,1.70
2018-06-18T11:33:31.710Z,1.70
2018-06-18T11:34:31.857Z,1.50
2018-06-18T11:35:32.037Z,1.50
2018-06-18T11:36:32.200Z,1.50
2018-06-18T11:37:32.395Z,1.50
2018-06-18T11:38:32.502Z,1.60
2018-06-18T11:39:32.721Z,1.70
2018-06-18T11:40:32.849Z,1.70
2018-06-18T11:41:33.020Z,1.60
2018-06-18T11:42:33.184Z,1.50
2018-06-18T11:43:33.377Z,1.70
2018-06-18T11:44:33.543Z,1.50
2018-06-18T11:45:33.725Z,1.50
2018-06-18T11:46:33.882Z,1.70
2018-06-18T11:47:34.099Z,1.70
2018-06-18T11:48:34.230Z,1.80
2018-06-18T11:49:34.411Z,1.40
2018-06-18T11:50:34.642Z,1.70
2018-06-18T11:51:34.761Z,1.60
2018-06-18T11:52:34.954Z,1.70
2018-06-18T11:53:35.136Z,1.70
2018-06-18T11:54:35.236Z,2.20
2018-06-18T11:55:35.441Z,1.90
2018-06-18T11:56:35.584Z,1.40
2018-06-18T11:57:35.878Z,1.60
2018-06-18T11:58:35.968Z,1.90
2018-06-18T11:59:36.154Z,1.70
2018-06-18T12:00:36.266Z,1.70
2018-06-18T12:01:36.456Z,1.60
2018-06-18T12:02:36.714Z,1.50
2018-06-18T12:03:36.850Z,1.30
2018-06-18T12:04:36.969Z,1.90
2018-06-18T12:05:37.201Z,1.90
2018-06-18T12:06:37.416Z,1.70
2018-06-18T12:07:37.467Z,1.50
2018-06-18T12:08:37.648Z,1.40
2018-06-18T12:09:37.871Z,1.70
2018-06-18T12:10:38.006Z,1.50
2018-06-18T12:11:38.163Z,1.60
2018-06-18T12:12:38.310Z,1.40
2018-06-18T12:13:38.571Z,1.70
2018-06-18T12:14:38.749Z,1.70
2018-06-18T12:15:38.867Z,1.50
2018-06-18T12:16:39.134Z,1.40
2018-06-18T12:17:39.189Z,1.50
2018-06-18T12:18:39.404Z,1.40
2018-06-18T12:19:39.524Z,1.40
2018-06-18T12:20:39.741Z,1.50
2018-06-18T12:21:39.889Z,1.40
2018-06-18T12:22:40.082Z,1.40
2018-06-18T12:23:40.304Z,1.30
2018-06-18T12:24:40.473Z,1.40
2018-06-18T12:25:40.644Z,1.30
2018-06-18T12:26:40.817Z,1.10
2018-06-18T12:27:40.975Z,1.40
2018-06-18T12:28:41.142Z,1.30
2018-06-18T12:29:41.315Z,1.50
2018-06-18T12:30:41.500Z,1.30
2018-06-18T12:31:41.671Z,1.30
2018-06-18T12:32:41.870Z,1.20
2018-06-18T12:33:42.016Z,1.40
2018-06-18T12:34:42.178Z,1.20
2018-06-18T12:35:42.436Z,1.20
2018-06-18T12:36:42.509Z,1.30
2018-06-18T12:37:42.723Z,1.40
2018-06-18T12:38:42.932Z,1.20
2018-06-18T12:39:43.070Z,1.50
2018-06-18T12:40:43.241Z,1.30
2018-06-18T12:41:43.396Z,1.40
2018-06-18T12:42:43.595Z,1.20
2018-06-18T12:43:43.770Z,1.30
2018-06-18T12:44:43.987Z,1.40
2018-06-18T12:45:44.224Z,1.30
2018-06-18T12:46:44.472Z,1.20
2018-06-18T12:47:44.580Z,1.50
2018-06-18T12:48:44.740Z,1.30
2018-06-18T12:49:44.872Z,1.40
2018-06-18T12:50:45.070Z,1.20
2018-06-18T12:51:45.228Z,1.50
2018-06-18T12:52:45.419Z,1.50
2018-06-18T12:53:45.600Z,1.50
2018-06-18T12:54:45.774Z,1.50
2018-06-18T12:55:45.981Z,1.30
2018-06-18T12:56:46.140Z,1.50
2018-06-18T12:57:46.261Z,1.10
2018-06-18T12:58:46.388Z,1.20
2018-06-18T12:59:46.626Z,1.40
2018-06-18T13:00:46.807Z,1.20
2018-06-18T13:01:46.984Z,1.20
2018-06-18T13:02:47.187Z,1.30
2018-06-18T13:03:47.295Z,1.50
2018-06-18T13:04:47.442Z,1.40
2018-06-18T13:05:47.693Z,1.50
2018-06-18T13:06:47.785Z,1.30
2018-06-18T13:07:47.992Z,1.50
2018-06-18T13:08:48.230Z,1.40
2018-06-18T13:09:48.347Z,1.50
2018-06-18T13:10:48.613Z,1.50
2018-06-18T13:11:48.718Z,1.40
2018-06-18T13:12:48.917Z,1.30
2018-06-18T13:13:49.055Z,1.30
2018-06-18T13:14:49.217Z,1.50
2018-06-18T13:15:49.358Z,1.20
2018-06-18T13:16:49.566Z,1.20
2018-06-18T13:17:49.738Z,1.40
2018-06-18T13:18:49.881Z,1.20
2018-06-18T13:19:50.152Z,1.20
2018-06-18T13:20:50.275Z,1.40
2018-06-18T13:21:50.474Z,1.40
2018-06-18T13:22:50.667Z,1.50
2018-06-18T13:23:50.836Z,1.20
2018-06-18T13:24:51.031Z,1.70
2018-06-18T13:25:51.186Z,1.40
2018-06-18T13:26:51.384Z,1.60
2018-06-18T13:27:51.572Z,1.30
2018-06-18T13:28:51.672Z,1.50
2018-06-18T13:29:51.853Z,1.40
2018-06-18T13:30:52.005Z,1.50
2018-06-18T13:31:52.230Z,1.30
2018-06-18T13:32:52.403Z,1.40
2018-06-18T13:33:52.536Z,1.50
2018-06-18T13:34:52.679Z,1.40
2018-06-18T13:35:52.864Z,1.40
2018-06-18T13:36:52.993Z,1.60
2018-06-18T13:37:53.246Z,1.70
2018-06-18T13:38:53.369Z,1.50
2018-06-18T13:39:53.589Z,1.40
2018-06-18T13:40:53.739Z,1.50
2018-06-18T13:41:53.933Z,1.60
2018-06-18T13:42:54.075Z,1.30
2018-06-18T13:43:54.259Z,1.50
2018-06-18T13:44:54.458Z,1.50
2018-06-18T13:45:54.595Z,1.50
2018-06-18T13:46:54.704Z,1.50
2018-06-18T13:47:54.953Z,1.40
2018-06-18T13:48:55.069Z,1.40
2018-06-18T13:49:55.261Z,1.80
2018-06-18T13:50:55.432Z,1.60
2018-06-18T13:51:55.650Z,1.50
2018-06-18T13:52:55.803Z,1.50
2018-06-18T13:53:56.018Z,1.50
2018-06-18T13:54:56.135Z,1.50
2018-06-18T13:55:56.340Z,1.50
2018-06-18T13:56:56.557Z,1.50
2018-06-18T13:57:56.659Z,1.70
2018-06-18T13:58:56.895Z,1.60
2018-06-18T13:59:57.068Z,1.50
2018-06-18T14:00:57.236Z,1.40
2018-06-18T14:01:57.413Z,1.50
2018-06-18T14:02:57.532Z,1.70
2018-06-18T14:03:57.683Z,1.60
2018-06-18T14:04:57.914Z,1.60
2018-06-18T14:05:58.070Z,1.70
2018-06-18T14:06:58.191Z,1.60
2018-06-18T14:07:58.442Z,1.70
2018-06-18T14:08:58.564Z,1.60
2018-06-18T14:09:58.710Z,1.70
2018-06-18T14:10:58.944Z,1.60
2018-06-18T14:11:59.129Z,1.70
2018-06-18T14:12:59.338Z,1.80
2018-06-18T14:13:59.464Z,1.70
2018-06-18T14:14:59.585Z,1.50
2018-06-18T14:15:59.759Z,1.60
2018-06-18T14:16:59.955Z,1.60
2018-06-18T14:18:00.174Z,1.40
2018-06-18T14:19:00.348Z,1.70
2018-06-18T14:20:00.540Z,1.40
2018-06-18T14:21:00.699Z,1.30
2018-06-18T14:22:00.844Z,1.50
2018-06-18T14:23:01.018Z,1.50
2018-06-18T14:24:01.192Z,1.40
2018-06-18T14:25:01.369Z,1.50
2018-06-18T14:26:01.537Z,1.60
2018-06-18T14:27:01.718Z,1.50
2018-06-18T14:28:01.893Z,1.50
2018-06-18T14:29:02.021Z,1.50
2018-06-18T14:30:02.237Z,1.40
2018-06-18T14:31:02.442Z,1.70
2018-06-18T14:32:02.572Z,1.50
2018-06-18T14:33:02.723Z,1.60
2018-06-18T14:34:02.947Z,1.40
2018-06-18T14:35:03.075Z,1.70
2018-06-18T14:36:03.200Z,1.70
2018-06-18T14:37:03.448Z,1.70
2018-06-18T14:38:03.613Z,1.80
2018-06-18T14:39:03.765Z,1.70
2018-06-18T14:40:03.941Z,1.70
2018-06-18T14:41:04.161Z,1.70
2018-06-18T14:42:04.383Z,1.70
2018-06-18T14:43:04.427Z,1.80
2018-06-18T14:44:04.590Z,1.90
2018-06-18T14:45:04.885Z,1.60
2018-06-18T14:46:05.132Z,1.80
2018-06-18T14:47:05.166Z,1.80
2018-06-18T14:48:05.240Z,1.50
2018-06-18T14:49:05.455Z,1.60
2018-06-18T14:50:05.661Z,1.70
2018-06-18T14:51:05.805Z,1.60
2018-06-18T14:52:05.958Z,1.80
2018-06-18T14:53:06.158Z,1.80
2018-06-18T14:54:06.402Z,1.80
2018-06-18T14:55:06.516Z,1.80
2018-06-18T14:56:06.813Z,1.70
2018-06-18T14:57:06.934Z,1.50
2018-06-18T14:58:07.138Z,1.70
2018-06-18T14:59:07.305Z,1.90
2018-06-18T15:00:07.491Z,1.90
2018-06-18T15:01:07.626Z,1.80
2018-06-18T15:02:07.790Z,1.70
2018-06-18T15:03:07.953Z,1.70
2018-06-18T15:04:08.234Z,1.50
2018-06-18T15:05:08.304Z,1.50
2018-06-18T15:06:08.500Z,1.50
2018-06-18T15:07:08.694Z,1.70
2018-06-18T15:08:08.878Z,1.40
2018-06-18T15:09:09.211Z,1.60
2018-06-18T15:10:09.270Z,1.50
2018-06-18T15:11:09.424Z,1.40
2018-06-18T15:12:09.580Z,1.70
2018-06-18T15:13:09.725Z,1.40
2018-06-18T15:14:09.898Z,1.50
2018-06-18T15:15:10.208Z,1.60
2018-06-18T15:16:10.218Z,1.50
2018-06-18T15:17:10.410Z,1.30
2018-06-18T15:18:10.661Z,1.60
2018-06-18T15:19:10.785Z,1.40
2018-06-18T15:20:10.965Z,1.40
2018-06-18T15:21:11.188Z,1.40
2018-06-18T15:22:11.266Z,1.50
2018-06-18T15:23:11.465Z,1.40
2018-06-18T15:24:11.634Z,1.50
2018-06-18T15:25:11.858Z,1.50
2018-06-18T15:26:12.040Z,1.30
2018-06-18T15:27:12.246Z,1.30
2018-06-18T15:28:12.348Z,1.50
2018-06-18T15:29:12.518Z,1.40
2018-06-18T15:30:12.756Z,1.30
2018-06-18T15:31:12.892Z,1.30
2018-06-18T15:32:13.118Z,1.30
2018-06-18T15:33:13.281Z,1.30
2018-06-18T15:34:13.418Z,1.20
2018-06-18T15:35:13.599Z,1.40
2018-06-18T15:36:13.799Z,1.30
2018-06-18T15:37:13.936Z,1.30
2018-06-18T15:38:14.233Z,1.30
2018-06-18T15:39:14.235Z,1.20
2018-06-18T15:40:14.457Z,1.20
2018-06-18T15:41:14.607Z,1.40
2018-06-18T15:42:14.804Z,1.30
2018-06-18T15:43:15.018Z,1.40
2018-06-18T15:44:15.301Z,1.20
2018-06-18T15:45:15.313Z,1.10
2018-06-18T15:46:15.524Z,1.20
2018-06-18T15:47:15.692Z,1.00
2018-06-18T15:48:15.832Z,1.20
2018-06-18T15:49:15.951Z,1.20
2018-06-18T15:50:16.223Z,1.30
2018-06-18T15:51:16.376Z,1.20
2018-06-18T15:52:16.600Z,1.10
2018-06-18T15:53:16.707Z,1.10
2018-06-18T15:54:16.882Z,1.20
2018-06-18T15:55:17.004Z,1.20
2018-06-18T15:56:17.252Z,1.40
2018-06-18T15:57:17.454Z,1.10
2018-06-18T15:58:17.557Z,1.00
2018-06-18T15:59:17.730Z,1.30
2018-06-18T16:00:17.957Z,1.00
2018-06-18T16:01:18.175Z,1.10
2018-06-18T16:02:18.350Z,1.40
2018-06-18T16:03:18.447Z,1.10
2018-06-18T16:04:18.617Z,1.10
2018-06-18T16:05:18.807Z,1.10
2018-06-18T16:06:19.054Z,1.10
2018-06-18T16:07:19.228Z,1.20
2018-06-18T16:08:19.446Z,1.10
2018-06-18T16:09:19.550Z,1.30
2018-06-18T16:10:19.690Z,1.30
2018-06-18T16:11:19.937Z,1.30
2018-06-18T16:12:20.051Z,1.30
2018-06-18T16:13:20.228Z,1.30
2018-06-18T16:14:20.427Z,1.30
2018-06-18T16:15:20.581Z,1.30
2018-06-18T16:16:20.786Z,1.20
2018-06-18T16:17:20.953Z,1.30
2018-06-18T16:18:21.120Z,1.20
2018-06-18T16:19:21.278Z,1.40
2018-06-18T16:20:21.429Z,1.20
2018-06-18T16:21:21.585Z,1.20